createdAt,value
2023-02-28T00:00:31.505Z,90.3
2023-02-28T00:02:30.707Z,89.3
2023-02-28T00:04:30.498Z,89.3
2023-02-28T00:06:30.165Z,88.7
2023-02-28T00:08:29.933Z,88.7
2023-02-28T00:10:31.144Z,88.7
2023-02-28T00:12:29.504Z,88.5
2023-02-28T00:14:31.022Z,88.5
2023-02-28T00:16:29.021Z,88.5
2023-02-28T00:18:31.154Z,88.5
2023-02-28T00:20:28.493Z,88.5
2023-02-28T00:22:28.216Z,88.2
2023-02-28T00:24:27.822Z,88.2
2023-02-28T00:26:27.600Z,88.8
2023-02-28T00:28:27.340Z,88.8
2023-02-28T00:30:27.099Z,88
2023-02-28T00:32:26.853Z,88
2023-02-28T00:34:27.276Z,88
2023-02-28T00:36:26.518Z,87.4
2023-02-28T00:38:25.980Z,87.9
2023-02-28T00:40:27.311Z,87.9
2023-02-28T00:42:25.504Z,87.9
2023-02-28T00:44:25.285Z,87.9
2023-02-28T00:46:24.959Z,87.9
2023-02-28T00:48:24.717Z,87.9
2023-02-28T00:50:24.620Z,87.4
2023-02-28T00:52:24.155Z,87.3
2023-02-28T00:54:24.301Z,86.8
2023-02-28T00:56:23.764Z,86.8
2023-02-28T00:58:23.318Z,86.8
2023-02-28T01:00:24.624Z,86.8
2023-02-28T01:02:23.446Z,87.3
2023-02-28T01:04:22.645Z,87.6
2023-02-28T01:06:22.425Z,87
2023-02-28T01:08:22.230Z,87
2023-02-28T01:10:21.826Z,86.2
2023-02-28T01:12:21.634Z,87.2
2023-02-28T01:14:21.566Z,87.2
2023-02-28T01:16:21.074Z,87.2
2023-02-28T01:18:21.903Z,87.2
2023-02-28T01:20:20.791Z,87.2
2023-02-28T01:22:20.259Z,86.7
2023-02-28T01:24:20.101Z,86.7
2023-02-28T01:26:23.053Z,86.7
2023-02-28T01:28:19.582Z,86.7
2023-02-28T01:30:21.242Z,86.7
2023-02-28T01:32:19.139Z,86.8
2023-02-28T01:34:18.855Z,86.4
2023-02-28T01:36:20.839Z,87.1
2023-02-28T01:38:23.140Z,87.1
2023-02-28T01:40:18.385Z,87.1
2023-02-28T01:42:17.805Z,86.7
2023-02-28T01:44:46.930Z,87.6
2023-02-28T01:46:17.433Z,87.6
2023-02-28T01:48:20.076Z,87.6
2023-02-28T01:50:20.068Z,87.6
2023-02-28T01:52:16.550Z,87.2
2023-02-28T01:54:21.279Z,86.7
2023-02-28T01:56:22.991Z,87.4
2023-02-28T01:58:16.382Z,87.4
2023-02-28T02:00:20.634Z,86.7
2023-02-28T02:02:16.790Z,86.6
2023-02-28T02:04:15.771Z,86.6
2023-02-28T02:06:15.902Z,87.5
2023-02-28T02:08:17.661Z,87.5
2023-02-28T02:10:17.824Z,87
2023-02-28T02:12:29.303Z,86.1
2023-02-28T02:14:31.786Z,86.2
2023-02-28T02:16:28.089Z,86.2
2023-02-28T02:18:24.626Z,86.2
2023-02-28T02:20:36.585Z,86.7
2023-02-28T02:22:35.860Z,86.4
2023-02-28T02:24:34.272Z,85.9
2023-02-28T02:26:35.659Z,85.9
2023-02-28T02:28:32.057Z,85.9
2023-02-28T02:30:28.334Z,85.9
2023-02-28T02:32:29.146Z,85.7
2023-02-28T02:34:26.605Z,86.2
2023-02-28T02:36:17.473Z,86.2
2023-02-28T02:38:18.969Z,86.2
2023-02-28T02:40:17.104Z,86.2
2023-02-28T02:42:16.770Z,86.2
2023-02-28T02:44:15.744Z,86.2
2023-02-28T02:46:18.048Z,86.2
2023-02-28T02:48:16.080Z,85.9
2023-02-28T02:50:16.925Z,85.9
2023-02-28T02:52:12.731Z,86.5
2023-02-28T02:54:14.152Z,85.8
2023-02-28T02:56:09.489Z,86.6
2023-02-28T02:58:11.959Z,86.6
2023-02-28T03:00:10.168Z,86.7
2023-02-28T03:02:13.302Z,86.1
2023-02-28T03:04:12.297Z,86.7
2023-02-28T03:06:07.061Z,86.7
2023-02-28T03:08:06.950Z,86.7
2023-02-28T03:10:30.327Z,86.7
2023-02-28T03:12:11.894Z,86.3
2023-02-28T03:14:19.388Z,86.3
2023-02-28T03:16:23.902Z,86.3
2023-02-28T03:18:10.583Z,86.5
2023-02-28T03:20:17.422Z,86.5
2023-02-28T03:22:17.498Z,86
2023-02-28T03:24:11.860Z,86
2023-02-28T03:26:12.270Z,85.9
2023-02-28T03:28:12.447Z,85.9
2023-02-28T03:30:09.775Z,85.9
2023-02-28T03:32:09.899Z,85.8
2023-02-28T03:34:07.062Z,85.8
2023-02-28T03:36:08.315Z,85.8
2023-02-28T03:38:09.811Z,85.8
2023-02-28T03:40:08.107Z,85.8
2023-02-28T03:42:07.674Z,85.4
2023-02-28T03:44:07.644Z,86
2023-02-28T03:46:07.590Z,85.1
2023-02-28T03:48:07.964Z,85.1
2023-02-28T03:50:06.036Z,85.1
2023-02-28T03:52:04.471Z,84.7
2023-02-28T03:54:08.750Z,84
2023-02-28T03:56:06.301Z,84
2023-02-28T03:58:06.122Z,84.7
2023-02-28T04:00:12.935Z,84.7
2023-02-28T04:02:00.156Z,84.7
2023-02-28T04:03:59.604Z,84.7
2023-02-28T04:05:59.640Z,84.7
2023-02-28T04:08:05.326Z,84.8
2023-02-28T04:09:59.088Z,84.2
2023-02-28T04:11:58.343Z,83.8
2023-02-28T04:13:58.250Z,84.4
2023-02-28T04:15:58.240Z,84.4
2023-02-28T04:17:57.902Z,84.4
2023-02-28T04:19:58.418Z,84.4
2023-02-28T04:21:57.160Z,83.9
2023-02-28T04:23:56.905Z,82.9
2023-02-28T04:25:56.725Z,82.9
2023-02-28T04:27:56.350Z,82.9
2023-02-28T04:29:56.093Z,82.6
2023-02-28T04:31:57.285Z,81.7
2023-02-28T04:33:55.588Z,82.9
2023-02-28T04:36:05.202Z,83
2023-02-28T04:37:55.031Z,83
2023-02-28T04:39:55.112Z,83
2023-02-28T04:41:54.700Z,83.3
2023-02-28T04:43:54.232Z,82
2023-02-28T04:45:54.400Z,82
2023-02-28T04:47:53.719Z,82.7
2023-02-28T04:49:53.542Z,82.7
2023-02-28T04:51:53.445Z,83.2
2023-02-28T04:53:53.223Z,83.2
2023-02-28T04:55:52.795Z,82.4
2023-02-28T04:57:52.663Z,82.4
2023-02-28T04:59:52.400Z,81.8
2023-02-28T05:01:52.223Z,81.7
2023-02-28T05:03:54.055Z,82.1
2023-02-28T05:05:51.758Z,82.1
2023-02-28T05:07:51.478Z,82.1
2023-02-28T05:09:51.290Z,82.1
2023-02-28T05:11:51.063Z,82.1
2023-02-28T05:13:51.908Z,82.1
2023-02-28T05:15:50.702Z,82.7
2023-02-28T05:17:50.375Z,82.7
2023-02-28T05:19:50.093Z,82.7
2023-02-28T05:21:52.736Z,82
2023-02-28T05:23:49.774Z,82.2
2023-02-28T05:25:49.552Z,82.2
2023-02-28T05:27:49.392Z,82.2
2023-02-28T05:29:49.116Z,82.9
2023-02-28T05:31:49.217Z,82.9
2023-02-28T05:33:49.219Z,82.2
2023-02-28T05:35:48.540Z,82.7
2023-02-28T05:37:48.248Z,82.7
2023-02-28T05:39:48.222Z,83.9
2023-02-28T05:41:47.819Z,83.5
2023-02-28T05:43:48.755Z,83.8
2023-02-28T05:45:47.669Z,83.8
2023-02-28T05:47:47.230Z,84.7
2023-02-28T05:49:47.146Z,84.7
2023-02-28T05:51:47.185Z,85.2
2023-02-28T05:53:46.865Z,85.5
2023-02-28T05:55:46.478Z,85.5
2023-02-28T05:57:46.455Z,84.9
2023-02-28T05:59:46.056Z,84.9
2023-02-28T06:01:47.496Z,85
2023-02-28T06:03:45.960Z,85.7
2023-02-28T06:05:45.479Z,85.7
2023-02-28T06:07:45.359Z,85.7
2023-02-28T06:09:45.100Z,85.7
2023-02-28T06:11:44.993Z,84.9
2023-02-28T06:13:44.809Z,85
2023-02-28T06:15:44.542Z,85
2023-02-28T06:17:44.852Z,85.5
2023-02-28T06:19:44.158Z,84.7
2023-02-28T06:21:44.459Z,85.5
2023-02-28T06:23:43.766Z,84.1
2023-02-28T06:25:45.545Z,84.2
2023-02-28T06:27:43.771Z,85
2023-02-28T06:29:43.331Z,84.3
2023-02-28T06:31:43.166Z,85.9
2023-02-28T06:33:44.591Z,84.7
2023-02-28T06:35:44.946Z,84.7
2023-02-28T06:37:42.514Z,85.5
2023-02-28T06:39:42.354Z,84.8
2023-02-28T06:41:53.964Z,84.1
2023-02-28T06:43:42.909Z,84.1
2023-02-28T06:45:43.426Z,82.8
2023-02-28T06:47:41.914Z,83.9
2023-02-28T06:49:41.264Z,83.9
2023-02-28T06:51:43.154Z,83.6
2023-02-28T06:53:41.466Z,83.6
2023-02-28T06:55:41.203Z,83.6
2023-02-28T06:57:40.512Z,83.3
2023-02-28T06:59:40.355Z,83.9
2023-02-28T07:01:40.667Z,84.3
2023-02-28T07:03:40.131Z,84.3
2023-02-28T07:05:40.342Z,84.3
2023-02-28T07:07:39.825Z,83.9
2023-02-28T07:09:39.455Z,83.9
2023-02-28T07:11:39.719Z,83.7
2023-02-28T07:13:38.984Z,84.1
2023-02-28T07:15:42.318Z,84.1
2023-02-28T07:17:38.635Z,84.7
2023-02-28T07:19:39.508Z,85.2
2023-02-28T07:21:38.313Z,85.3
2023-02-28T07:23:39.295Z,86.3
2023-02-28T07:25:38.023Z,86.3
2023-02-28T07:27:37.801Z,86.3
2023-02-28T07:29:37.629Z,85.3
2023-02-28T07:31:37.623Z,85.1
2023-02-28T07:33:37.792Z,84.3
2023-02-28T07:35:37.278Z,84.9
2023-02-28T07:37:36.957Z,84.2
2023-02-28T07:39:36.857Z,84.7
2023-02-28T07:41:36.637Z,84.5
2023-02-28T07:43:37.274Z,84.5
2023-02-28T07:45:36.218Z,84.5
2023-02-28T07:47:36.070Z,84
2023-02-28T07:49:37.335Z,84
2023-02-28T07:51:35.794Z,84.1
2023-02-28T07:53:35.743Z,83.3
2023-02-28T07:55:35.698Z,83.3
2023-02-28T07:57:35.603Z,82.7
2023-02-28T07:59:35.067Z,82.7
2023-02-28T08:01:35.138Z,84
2023-02-28T08:03:35.185Z,84.8
2023-02-28T08:05:39.632Z,84.8
2023-02-28T08:07:34.434Z,84.8
2023-02-28T08:09:35.747Z,84.8
2023-02-28T08:11:34.344Z,84.9
2023-02-28T08:13:34.333Z,83.8
2023-02-28T08:15:33.766Z,83.8
2023-02-28T08:17:35.469Z,83.2
2023-02-28T08:19:33.654Z,83.2
2023-02-28T08:21:33.319Z,84
2023-02-28T08:23:33.105Z,83.2
2023-02-28T08:25:33.015Z,83.2
2023-02-28T08:27:32.834Z,83.6
2023-02-28T08:29:32.663Z,83.6
2023-02-28T08:31:32.922Z,83.8
2023-02-28T08:33:32.276Z,84.8
2023-02-28T08:35:32.185Z,84.8
2023-02-28T08:37:32.183Z,85.4
2023-02-28T08:39:34.809Z,84.6
2023-02-28T08:41:32.048Z,84.2
2023-02-28T08:43:31.867Z,85.1
2023-02-28T08:45:31.453Z,85.1
2023-02-28T08:47:31.329Z,84.4
2023-02-28T08:49:31.086Z,85.2
2023-02-28T08:51:31.401Z,85
2023-02-28T08:53:31.017Z,84.3
2023-02-28T08:55:30.603Z,85.4
2023-02-28T08:57:30.411Z,85.4
2023-02-28T08:59:30.295Z,84.7
2023-02-28T09:01:31.456Z,85.3
2023-02-28T09:03:29.971Z,86.3
2023-02-28T09:05:29.819Z,86.3
2023-02-28T09:07:29.660Z,85.6
2023-02-28T09:09:29.517Z,85.6
2023-02-28T09:11:30.888Z,84.7
2023-02-28T09:13:29.867Z,85.3
2023-02-28T09:15:29.002Z,85.3
2023-02-28T09:17:30.733Z,85.4
2023-02-28T09:19:28.733Z,84
2023-02-28T09:21:29.581Z,84.5
2023-02-28T09:23:28.512Z,84.5
2023-02-28T09:25:28.190Z,83.6
2023-02-28T09:27:28.118Z,84.8
2023-02-28T09:29:27.977Z,84.8
2023-02-28T09:31:28.666Z,84.8
2023-02-28T09:33:27.765Z,85.2
2023-02-28T09:35:27.528Z,85.1
2023-02-28T09:37:27.429Z,85.1
2023-02-28T09:39:27.217Z,85.1
2023-02-28T09:41:32.757Z,86.1
2023-02-28T09:43:31.299Z,86.1
2023-02-28T09:45:31.377Z,86.3
2023-02-28T09:47:31.714Z,86.9
2023-02-28T09:49:33.575Z,86.9
2023-02-28T09:51:38.275Z,87.1
2023-02-28T09:53:29.805Z,87.1
2023-02-28T09:55:35.218Z,87.1
2023-02-28T09:57:39.159Z,87.1
2023-02-28T09:59:39.918Z,87.1
2023-02-28T10:01:32.459Z,87
2023-02-28T10:03:33.031Z,87
2023-02-28T10:05:30.211Z,86.3
2023-02-28T10:07:42.537Z,87
2023-02-28T10:09:28.156Z,87
2023-02-28T10:11:27.024Z,87
2023-02-28T10:13:32.493Z,86.4
2023-02-28T10:15:28.142Z,86.4
2023-02-28T10:17:49.329Z,86.4
2023-02-28T10:19:31.179Z,86.4
2023-02-28T10:21:28.621Z,87.1
2023-02-28T10:23:28.530Z,86.3
2023-02-28T10:25:26.383Z,86.9
2023-02-28T10:27:25.539Z,86.9
2023-02-28T10:29:23.705Z,87.5
2023-02-28T10:31:25.311Z,87.5
2023-02-28T10:33:25.742Z,88.2
2023-02-28T10:35:25.499Z,88.2
2023-02-28T10:37:22.994Z,87.7
2023-02-28T10:39:38.457Z,87.7
2023-02-28T10:41:31.679Z,88.4
2023-02-28T10:43:23.877Z,88.4
2023-02-28T10:45:23.864Z,87.9
2023-02-28T10:47:22.269Z,87.9
2023-02-28T10:49:24.463Z,87.9
2023-02-28T10:51:23.395Z,87.9
2023-02-28T10:53:32.891Z,88.4
2023-02-28T10:55:25.150Z,88.9
2023-02-28T10:57:23.691Z,88.4
2023-02-28T10:59:28.498Z,89
2023-02-28T11:01:24.123Z,88.3
2023-02-28T11:03:29.379Z,88.3
2023-02-28T11:05:31.572Z,88.3
2023-02-28T11:07:24.377Z,88.3
2023-02-28T11:09:25.049Z,88.5
2023-02-28T11:11:22.957Z,88.5
2023-02-28T11:13:24.803Z,88.6
2023-02-28T11:15:24.959Z,88.6
2023-02-28T11:17:23.268Z,88
2023-02-28T11:19:24.588Z,88.7
2023-02-28T11:21:25.309Z,87.8
2023-02-28T11:23:20.829Z,88.7
2023-02-28T11:25:25.096Z,88
2023-02-28T11:27:26.958Z,88
2023-02-28T11:29:21.455Z,87.4
2023-02-28T11:31:19.181Z,87.4
2023-02-28T11:33:27.260Z,88
2023-02-28T11:35:24.742Z,88
2023-02-28T11:37:19.912Z,88
2023-02-28T11:39:19.205Z,88
2023-02-28T11:41:34.373Z,88.2
2023-02-28T11:43:30.131Z,88.2
2023-02-28T11:45:33.368Z,88.2
2023-02-28T11:47:32.894Z,88.2
2023-02-28T11:49:33.105Z,88.2
2023-02-28T11:51:23.984Z,88.2
2023-02-28T11:53:37.880Z,88.1
2023-02-28T11:55:24.356Z,88.1
2023-02-28T11:57:30.072Z,88.1
2023-02-28T11:59:36.335Z,87.9
2023-02-28T12:01:28.760Z,87.9
2023-02-28T12:03:27.469Z,88.6
2023-02-28T12:05:29.276Z,88.6
2023-02-28T12:07:23.586Z,88
2023-02-28T12:09:36.947Z,88.6
2023-02-28T12:11:29.870Z,88.6
2023-02-28T12:13:24.433Z,88.4
2023-02-28T12:15:32.983Z,88.4
2023-02-28T12:17:26.416Z,88.8
2023-02-28T12:19:21.254Z,88.8
2023-02-28T12:21:27.745Z,88.8
2023-02-28T12:23:37.856Z,89.1
2023-02-28T12:25:32.749Z,89.1
2023-02-28T12:27:19.551Z,89.1
2023-02-28T12:29:20.212Z,89.1
2023-02-28T12:31:20.393Z,89.1
2023-02-28T12:33:18.574Z,88.7
2023-02-28T12:35:18.796Z,88.7
2023-02-28T12:37:18.489Z,88.7
2023-02-28T12:39:22.896Z,88.7
2023-02-28T12:41:16.920Z,89.4
2023-02-28T12:43:17.335Z,89.4
2023-02-28T12:45:20.329Z,89.4
2023-02-28T12:47:16.741Z,89.4
2023-02-28T12:49:19.279Z,89.4
2023-02-28T12:51:16.058Z,89.4
2023-02-28T12:53:22.661Z,89.5
2023-02-28T12:55:18.978Z,89.5
2023-02-28T12:57:20.343Z,89.5
2023-02-28T12:59:22.876Z,89.5
2023-02-28T13:01:34.567Z,89.5
2023-02-28T13:03:38.503Z,89.5
2023-02-28T13:05:33.058Z,89.5
2023-02-28T13:07:31.656Z,89.5
2023-02-28T13:09:13.508Z,89.5
2023-02-28T13:11:25.632Z,89.5
2023-02-28T13:13:16.654Z,90
2023-02-28T13:15:19.916Z,90
2023-02-28T13:17:13.383Z,90
2023-02-28T13:19:12.191Z,90
2023-02-28T13:21:24.323Z,90.6
2023-02-28T13:23:40.768Z,90.2
2023-02-28T13:25:50.647Z,90.2
2023-02-28T13:27:24.657Z,90.2
2023-02-28T13:29:29.152Z,90.2
2023-02-28T13:31:10.707Z,90.2
2023-02-28T13:33:26.139Z,91.1
2023-02-28T13:35:21.161Z,91.1
2023-02-28T13:37:39.391Z,91.1
2023-02-28T13:39:39.356Z,91.1
2023-02-28T13:41:39.057Z,90.7
2023-02-28T13:43:10.067Z,91.3
2023-02-28T13:45:26.310Z,90.5
2023-02-28T13:47:28.402Z,90.5
2023-02-28T13:49:26.144Z,90.5
2023-02-28T13:51:38.382Z,90.5
2023-02-28T13:53:43.513Z,91.1
2023-02-28T13:55:27.419Z,90.5
2023-02-28T13:57:22.609Z,91
2023-02-28T13:59:24.197Z,91
2023-02-28T14:01:28.336Z,91
2023-02-28T14:03:27.337Z,90.7
2023-02-28T14:07:16.008Z,90.7
2023-02-28T14:09:24.013Z,90.7
2023-02-28T14:11:25.802Z,90.7
2023-02-28T14:13:39.161Z,91.1
2023-02-28T14:15:28.907Z,91.1
2023-02-28T14:17:13.959Z,90.8
2023-02-28T14:19:13.452Z,90.8
2023-02-28T14:21:17.031Z,90.8
2023-02-28T14:23:16.505Z,91.1
2023-02-28T14:25:18.751Z,91.1
2023-02-28T14:27:20.536Z,91.1
2023-02-28T14:29:24.348Z,91.1
2023-02-28T14:31:09.820Z,91.4
2023-02-28T14:33:20.397Z,91.4
2023-02-28T14:35:20.372Z,91.4
2023-02-28T14:37:06.458Z,91.4
2023-02-28T14:39:08.334Z,91.4
2023-02-28T14:41:16.089Z,91.4
2023-02-28T14:43:18.855Z,91.6
2023-02-28T14:45:06.748Z,91.6
2023-02-28T14:47:16.175Z,91.6
2023-02-28T14:49:07.662Z,91.6
2023-02-28T14:51:05.964Z,91.6
2023-02-28T14:53:16.007Z,92.2
2023-02-28T14:55:12.660Z,92.2
2023-02-28T14:57:05.861Z,91.5
2023-02-28T14:59:06.635Z,91.5
2023-02-28T15:01:05.128Z,91.5
2023-02-28T15:03:20.506Z,91.6
2023-02-28T15:05:22.162Z,91.6
2023-02-28T15:07:14.549Z,91.6
2023-02-28T15:09:10.848Z,92.2
2023-02-28T15:11:08.838Z,92.2
2023-02-28T15:13:07.391Z,92
2023-02-28T15:15:05.944Z,92
2023-02-28T15:17:09.361Z,92.9
2023-02-28T15:19:07.209Z,92.9
2023-02-28T15:21:07.141Z,92.9
2023-02-28T15:23:03.572Z,94.7
2023-02-28T15:25:05.329Z,95.4
2023-02-28T15:27:06.779Z,96
2023-02-28T15:29:06.431Z,96
2023-02-28T15:31:18.129Z,96
2023-02-28T15:33:06.642Z,95.1
2023-02-28T15:35:19.225Z,94.4
2023-02-28T15:37:02.511Z,94.4
2023-02-28T15:39:15.522Z,94.4
2023-02-28T15:41:02.221Z,94.4
2023-02-28T15:43:08.130Z,94.1
2023-02-28T15:45:02.129Z,93.8
2023-02-28T15:47:05.233Z,93.2
2023-02-28T15:49:01.730Z,93.2
2023-02-28T15:51:08.499Z,92.6
2023-02-28T15:53:02.162Z,92.6
2023-02-28T15:55:11.315Z,92.1
2023-02-28T15:57:05.812Z,92.1
2023-02-28T15:59:06.469Z,91.2
2023-02-28T16:01:06.393Z,91.2
2023-02-28T16:03:02.013Z,90.5
2023-02-28T16:05:03.374Z,90.5
2023-02-28T16:07:03.281Z,90.5
2023-02-28T16:09:01.328Z,90.5
2023-02-28T16:11:00.042Z,90.5
2023-02-28T16:13:02.390Z,91.1
2023-02-28T16:15:03.546Z,91.1
2023-02-28T16:17:05.750Z,90.5
2023-02-28T16:18:59.571Z,89.9
2023-02-28T16:21:00.545Z,89.9
2023-02-28T16:23:00.970Z,89.3
2023-02-28T16:24:58.952Z,88.8
2023-02-28T16:26:59.166Z,88.8
2023-02-28T16:28:58.597Z,88.2
2023-02-28T16:31:01.010Z,88.2
2023-02-28T16:32:59.378Z,88.1
2023-02-28T16:34:58.027Z,88.9
2023-02-28T16:36:58.242Z,88.9
2023-02-28T16:38:58.529Z,88.9
2023-02-28T16:41:00.422Z,88.3
2023-02-28T16:43:00.924Z,88.1
2023-02-28T16:44:57.678Z,88.1
2023-02-28T16:46:57.423Z,88.1
2023-02-28T16:48:58.922Z,88.1
2023-02-28T16:50:57.122Z,88.1
2023-02-28T16:52:58.414Z,88.3
2023-02-28T16:54:56.643Z,88.3
2023-02-28T16:56:57.484Z,88.3
2023-02-28T16:58:59.961Z,88.3
2023-02-28T17:00:56.253Z,88.3
2023-02-28T17:02:57.541Z,88.5
2023-02-28T17:04:55.675Z,88.8
2023-02-28T17:06:55.704Z,88.1
2023-02-28T17:08:57.030Z,88.1
2023-02-28T17:10:55.161Z,88.1
2023-02-28T17:12:58.496Z,88.1
2023-02-28T17:14:54.857Z,88.1
2023-02-28T17:16:54.658Z,87
2023-02-28T17:18:58.780Z,87
2023-02-28T17:20:55.213Z,87.6
2023-02-28T17:22:55.097Z,87.4
2023-02-28T17:24:55.514Z,87.4
2023-02-28T17:26:54.394Z,87
2023-02-28T17:28:54.587Z,86.2
2023-02-28T17:30:53.455Z,86.2
2023-02-28T17:32:53.520Z,86
2023-02-28T17:34:53.090Z,86
2023-02-28T17:36:53.240Z,85.6
2023-02-28T17:38:54.450Z,85.6
2023-02-28T17:40:53.330Z,85.6
2023-02-28T17:42:52.514Z,85.4
2023-02-28T17:44:52.253Z,85.4
2023-02-28T17:46:54.598Z,85.4
2023-02-28T17:48:53.192Z,85.4
2023-02-28T17:50:52.387Z,85.4
2023-02-28T17:52:52.937Z,85.6
2023-02-28T17:54:50.970Z,85.6
2023-02-28T17:56:50.858Z,85.6
2023-02-28T17:58:52.785Z,85.6
2023-02-28T18:00:50.333Z,85.6
2023-02-28T18:02:50.231Z,85.6
2023-02-28T18:04:49.934Z,85.6
2023-02-28T18:06:49.764Z,85
2023-02-28T18:08:49.216Z,85
2023-02-28T18:10:49.067Z,85
2023-02-28T18:12:50.773Z,84.8
2023-02-28T18:14:48.882Z,84.8
2023-02-28T18:16:48.459Z,84.2
2023-02-28T18:18:49.164Z,84.2
2023-02-28T18:20:48.549Z,84.1
2023-02-28T18:22:48.233Z,83.6
2023-02-28T18:24:47.782Z,84.3
2023-02-28T18:26:47.681Z,84.3
2023-02-28T18:28:47.564Z,85
2023-02-28T18:30:46.989Z,84.2
2023-02-28T18:32:47.158Z,84.1
2023-02-28T18:34:47.029Z,84.1
2023-02-28T18:36:46.790Z,84.1
2023-02-28T18:38:46.856Z,84.1
2023-02-28T18:40:53.220Z,83.6
2023-02-28T18:42:45.918Z,83.7
2023-02-28T18:44:45.891Z,83
2023-02-28T18:46:45.498Z,83
2023-02-28T18:48:45.874Z,83
2023-02-28T18:50:45.118Z,83
2023-02-28T18:52:44.849Z,82.9
2023-02-28T18:54:44.522Z,82.4
2023-02-28T18:56:45.022Z,83
2023-02-28T18:58:45.078Z,82.3
2023-02-28T19:00:44.301Z,82.3
2023-02-28T19:02:43.785Z,82.3
2023-02-28T19:04:43.569Z,82.3
2023-02-28T19:06:43.326Z,82.9
2023-02-28T19:08:43.277Z,82.9
2023-02-28T19:10:42.938Z,82.9
2023-02-28T19:12:43.900Z,82.2
2023-02-28T19:14:42.671Z,82.2
2023-02-28T19:16:42.371Z,82.2
2023-02-28T19:18:42.519Z,82.2
2023-02-28T19:20:42.199Z,82.2
2023-02-28T19:22:41.954Z,82.3
2023-02-28T19:24:41.530Z,81.7
2023-02-28T19:26:41.412Z,80.9
2023-02-28T19:28:41.320Z,80.9
2023-02-28T19:30:46.488Z,81.4
2023-02-28T19:32:40.838Z,81.4
2023-02-28T19:34:40.547Z,81.4
2023-02-28T19:36:40.320Z,81.6
2023-02-28T19:38:41.288Z,81.6
2023-02-28T19:40:39.933Z,81.4
2023-02-28T19:42:39.849Z,81.4
2023-02-28T19:44:39.863Z,81.4
2023-02-28T19:46:39.312Z,81.4
2023-02-28T19:48:39.597Z,81.4
2023-02-28T19:50:39.347Z,82
2023-02-28T19:52:38.649Z,81.7
2023-02-28T19:54:38.524Z,81.7
2023-02-28T19:56:38.267Z,82.6
2023-02-28T19:58:38.839Z,82.6
2023-02-28T20:00:37.930Z,82.1
2023-02-28T20:02:37.671Z,82.6
2023-02-28T20:04:37.479Z,82.1
2023-02-28T20:06:37.221Z,82.1
2023-02-28T20:08:37.598Z,82.2
2023-02-28T20:10:37.826Z,82.2
2023-02-28T20:12:36.655Z,82
2023-02-28T20:14:36.722Z,82
2023-02-28T20:16:36.293Z,81.7
2023-02-28T20:18:36.916Z,81.7
2023-02-28T20:20:35.894Z,81.7
2023-02-28T20:22:38.181Z,81.7
2023-02-28T20:24:35.220Z,81.7
2023-02-28T20:26:36.005Z,81.7
2023-02-28T20:28:34.755Z,81.7
2023-02-28T20:30:34.710Z,81.1
2023-02-28T20:32:34.921Z,81.1
2023-02-28T20:34:34.171Z,81.1
2023-02-28T20:36:34.041Z,81.1
2023-02-28T20:38:33.947Z,81.1
2023-02-28T20:40:33.470Z,81.6
2023-02-28T20:42:33.400Z,81.5
2023-02-28T20:44:33.154Z,81.5
2023-02-28T20:46:33.149Z,81.5
2023-02-28T20:48:33.694Z,81.5
2023-02-28T20:50:32.334Z,82.2
2023-02-28T20:52:32.036Z,82.6
2023-02-28T20:54:31.961Z,82.6
2023-02-28T20:56:31.677Z,82.6
2023-02-28T20:58:33.412Z,82.6
2023-02-28T21:00:31.250Z,82.6
2023-02-28T21:02:31.037Z,82.6
2023-02-28T21:04:30.857Z,82.7
2023-02-28T21:06:33.340Z,82.7
2023-02-28T21:08:30.672Z,82.7
2023-02-28T21:10:30.446Z,82.7
2023-02-28T21:12:29.850Z,82.5
2023-02-28T21:14:29.747Z,82.5
2023-02-28T21:16:30.157Z,82
2023-02-28T21:18:29.192Z,82
2023-02-28T21:20:28.882Z,82
2023-02-28T21:22:28.668Z,81.7
2023-02-28T21:24:28.533Z,81.7
2023-02-28T21:26:28.733Z,81.7
2023-02-28T21:28:27.996Z,81.7
2023-02-28T21:30:27.772Z,81.7
2023-02-28T21:32:27.438Z,81.7
2023-02-28T21:34:27.415Z,81.7
2023-02-28T21:36:29.977Z,82.9
2023-02-28T21:38:26.728Z,82
2023-02-28T21:40:26.538Z,82
2023-02-28T21:42:27.216Z,81.9
2023-02-28T21:44:26.128Z,81.9
2023-02-28T21:46:28.645Z,81.9
2023-02-28T21:48:25.515Z,81.4
2023-02-28T21:50:25.233Z,81.4
2023-02-28T21:52:25.099Z,81.5
2023-02-28T21:54:25.462Z,81.5
2023-02-28T21:56:27.197Z,81.5
2023-02-28T21:58:24.298Z,81.5
2023-02-28T22:00:24.225Z,81.5
2023-02-28T22:02:23.781Z,81.5
2023-02-28T22:04:23.643Z,81.5
2023-02-28T22:06:26.171Z,81.5
2023-02-28T22:08:23.097Z,81.5
2023-02-28T22:10:22.872Z,81.5
2023-02-28T22:12:22.561Z,80.9
2023-02-28T22:14:22.518Z,80.9
2023-02-28T22:16:23.743Z,80.9
2023-02-28T22:18:21.752Z,80.9
2023-02-28T22:20:21.597Z,80.9
2023-02-28T22:22:21.360Z,81.5
2023-02-28T22:24:21.260Z,81.5
2023-02-28T22:26:22.421Z,81.5
2023-02-28T22:28:20.710Z,82
2023-02-28T22:30:20.643Z,81.4
2023-02-28T22:32:20.475Z,81.2
2023-02-28T22:34:20.331Z,82.3
2023-02-28T22:36:20.896Z,82.3
2023-02-28T22:38:19.862Z,82.3
2023-02-28T22:40:19.328Z,82.3
2023-02-28T22:42:18.919Z,81.9
2023-02-28T22:44:18.631Z,82.5
2023-02-28T22:46:18.449Z,83
2023-02-28T22:48:18.154Z,83
2023-02-28T22:50:18.177Z,83
2023-02-28T22:52:17.592Z,83.4
2023-02-28T22:54:32.309Z,83.7
2023-02-28T22:56:18.952Z,82.8
2023-02-28T22:58:16.845Z,83.5
2023-02-28T23:00:17.996Z,84.3
2023-02-28T23:02:16.247Z,83.9
2023-02-28T23:04:16.464Z,83.7
2023-02-28T23:06:19.883Z,83.7
2023-02-28T23:08:15.647Z,84.3
2023-02-28T23:10:16.958Z,83.5
2023-02-28T23:12:15.021Z,84.5
2023-02-28T23:14:16.580Z,84.9
2023-02-28T23:16:14.488Z,83.6
2023-02-28T23:18:14.749Z,83.6
2023-02-28T23:20:16.890Z,83.6
2023-02-28T23:22:13.706Z,83.5
2023-02-28T23:24:16.507Z,83.5
2023-02-28T23:26:13.109Z,83.5
2023-02-28T23:28:12.933Z,84.7
2023-02-28T23:30:14.195Z,83.5
2023-02-28T23:32:12.782Z,83.8
2023-02-28T23:34:13.032Z,84.1
2023-02-28T23:36:13.869Z,84.1
2023-02-28T23:38:11.615Z,84.1
2023-02-28T23:40:12.965Z,83.6
2023-02-28T23:42:11.239Z,83.9
2023-02-28T23:44:11.090Z,84.1
2023-02-28T23:46:12.191Z,84.1
2023-02-28T23:48:10.358Z,84.1
2023-02-28T23:50:11.150Z,84.1
2023-02-28T23:52:10.330Z,83.5
2023-02-28T23:54:09.739Z,84
2023-02-28T23:56:11.412Z,83.4
2023-02-28T23:58:08.967Z,83.4
